KJZI

Charleston Executive Airport

Charleston, South Carolina, USA
METAR KJZI 240155Z AUTO 19007KT 8SM CLR 24/22 A3009 RMK AO2
Observed Flight Rules
May-24 @ 01:55 UTC (6 minutes ago) Visual Flight Rules
Wind Visibility Clouds
190° at 7 knots 8 miles
  • Clear skies
Temperatures Readings
Current 24°C / 75°F
Dewpoint 22°C / 72°F
Humidity 89%
Altimeter 30.09" Hg
Pressure 1019 hPa
Elevation 6
METAR KJZI 240155Z AUTO 19007KT 8SM CLR 24/22 A3009 RMK AO2
Observed Flight Rules
May-24 @ 01:55 UTC
(6 minutes ago)
VFR
Wind Visibility
190° at 7 knots 8 miles
Clouds
  • Clear skies
Temperature Dewpoint
24°C / 75°F 22°C / 72°F
Humidity Altimeter Pressure
89% 30.09" Hg 1019 hPa